Time;durP1;ratioP1;P1;durP2;ratioP2;P2;SDS_P1;SDS_P2;PMS_P1;PMS_P2;Temp;Humidity;BMP_temperature;BMP_pressure;BME280_temperature;BME280_humidity;BME280_pressure;Samples;Min_cycle;Max_cycle;Signal;HPM_P1;HPM_P2
2023/11/21 00:04:01;;;;;;;23.50;7.85;;;;;;;8.93;100.00;101064.50;10374135;28;20063;-72
2023/11/21 00:09:02;;;;;;;31.70;10.48;;;;;;;9.02;100.00;101070.66;10371974;28;20030;-71
2023/11/21 00:14:04;;;;;;;20.92;8.40;;;;;;;9.13;100.00;101069.41;10374774;28;20056;-71
2023/11/21 00:19:04;;;;;;;9.80;7.65;;;;;;;9.21;100.00;101072.84;10355422;28;20042;-71
2023/11/21 00:24:07;;;;;;;20.25;7.50;;;;;;;9.28;100.00;101075.63;10372311;28;20499;-71
2023/11/21 00:29:08;;;;;;;20.33;7.50;;;;;;;9.34;100.00;101074.91;10356072;28;20133;-71
2023/11/21 00:34:08;;;;;;;16.45;8.00;;;;;;;9.40;100.00;101074.16;10355391;28;20037;-71
2023/11/21 00:39:08;;;;;;;13.95;6.38;;;;;;;9.40;100.00;101074.16;10371260;28;20523;-71
2023/11/21 00:44:09;;;;;;;16.17;8.82;;;;;;;9.49;100.00;101081.16;10355640;28;20401;-71
2023/11/21 00:49:11;;;;;;;20.98;7.40;;;;;;;9.53;100.00;101077.06;10371210;28;20034;-71
2023/11/21 00:54:12;;;;;;;20.05;7.93;;;;;;;9.53;100.00;101079.75;10371597;28;20381;-71
2023/11/21 00:59:12;;;;;;;11.63;7.32;;;;;;;9.57;100.00;101088.31;10372812;28;20046;-71
2023/11/21 01:04:13;;;;;;;23.05;8.93;;;;;;;9.54;100.00;101084.16;10370094;28;20109;-71
2023/11/21 01:09:13;;;;;;;14.65;8.20;;;;;;;9.47;100.00;101096.72;10355523;28;20402;-71
2023/11/21 01:14:14;;;;;;;9.93;6.38;;;;;;;9.41;100.00;101105.59;10371534;28;20030;-71
2023/11/21 01:19:14;;;;;;;14.80;7.10;;;;;;;9.39;100.00;101110.34;10370902;28;20675;-71
2023/11/21 01:24:15;;;;;;;14.93;6.97;;;;;;;9.40;100.00;101114.72;10386390;28;20044;-71
2023/11/21 01:29:16;;;;;;;6.75;5.72;;;;;;;9.42;100.00;101118.06;10371811;28;20600;-71
2023/11/21 01:34:17;;;;;;;12.82;8.15;;;;;;;9.49;100.00;101123.59;10355508;28;20025;-71
2023/11/21 01:39:23;;;;;;;13.70;7.40;;;;;;;9.55;100.00;101126.38;10395887;28;20124;-71
2023/11/21 01:44:24;;;;;;;28.25;9.90;;;;;;;9.54;100.00;101138.22;10363603;28;20029;-70
2023/11/21 01:49:25;;;;;;;18.05;8.02;;;;;;;9.50;100.00;101145.00;10378275;28;20046;-71
2023/11/21 01:54:25;;;;;;;24.40;9.88;;;;;;;9.47;100.00;101152.66;10379064;28;20053;-71
2023/11/21 01:59:26;;;;;;;13.90;8.07;;;;;;;9.49;100.00;101156.84;10378528;28;20061;-71
2023/11/21 02:04:27;;;;;;;21.83;6.97;;;;;;;9.55;100.00;101160.69;10376611;28;20037;-71
2023/11/21 02:09:27;;;;;;;18.60;7.57;;;;;;;9.61;100.00;101159.13;10377743;28;20069;-71
2023/11/21 02:14:28;;;;;;;13.43;6.50;;;;;;;9.69;100.00;101161.72;10377470;28;20429;-70
2023/11/21 02:19:29;;;;;;;16.73;6.97;;;;;;;9.70;100.00;101163.38;10376062;28;20030;-71
2023/11/21 02:24:30;;;;;;;8.35;6.07;;;;;;;9.71;100.00;101163.22;10375800;28;20405;-71
2023/11/21 02:29:31;;;;;;;12.25;6.22;;;;;;;9.73;100.00;101173.84;10376116;28;20069;-71
2023/11/21 02:34:31;;;;;;;10.38;6.10;;;;;;;9.78;100.00;101168.72;10374259;28;20065;-71
2023/11/21 02:39:32;;;;;;;7.80;6.85;;;;;;;9.83;100.00;101171.72;10359045;28;20392;-71
2023/11/21 02:44:32;;;;;;;11.73;6.88;;;;;;;9.88;100.00;101166.56;10375496;28;20489;-71
2023/11/21 02:49:34;;;;;;;7.25;4.93;;;;;;;9.93;100.00;101172.28;10358865;28;20038;-71
2023/11/21 02:54:36;;;;;;;14.77;6.65;;;;;;;9.96;100.00;101166.50;10359779;28;20052;-71
2023/11/21 02:59:36;;;;;;;13.88;7.65;;;;;;;9.96;100.00;101174.63;10358177;28;20053;-71
2023/11/21 03:04:37;;;;;;;5.68;5.18;;;;;;;9.92;100.00;101178.72;10375742;28;20390;-70
2023/11/21 03:09:37;;;;;;;11.45;5.82;;;;;;;9.95;100.00;101182.91;10358989;28;20088;-71
2023/11/21 03:14:39;;;;;;;13.00;5.05;;;;;;;10.01;100.00;101182.16;10357332;28;20061;-71
2023/11/21 03:19:41;;;;;;;7.80;5.30;;;;;;;10.08;100.00;101182.25;10358862;28;20078;-71
2023/11/21 03:24:41;;;;;;;5.60;5.10;;;;;;;10.13;100.00;101193.34;10358977;28;20041;-71
2023/11/21 03:29:42;;;;;;;13.07;6.10;;;;;;;10.14;100.00;101200.44;10373957;28;20052;-71
2023/11/21 03:34:58;;;;;;;7.53;5.30;;;;;;;10.18;100.00;101204.47;10357240;28;20128;-71
2023/11/21 03:39:59;;;;;;;6.75;4.10;;;;;;;10.21;100.00;101210.34;10357555;28;20448;-71
2023/11/21 03:44:59;;;;;;;8.20;5.18;;;;;;;10.22;100.00;101222.00;10357111;28;20166;-72
2023/11/21 03:50:00;;;;;;;14.70;5.50;;;;;;;10.22;100.00;101227.41;10358240;28;20045;-72
2023/11/21 03:55:02;;;;;;;6.85;4.82;;;;;;;10.17;100.00;101224.44;10356979;28;20072;-71
2023/11/21 04:00:05;;;;;;;8.20;5.05;;;;;;;10.19;100.00;101234.03;10372625;28;20064;-70
2023/11/21 04:05:09;;;;;;;13.10;7.43;;;;;;;10.22;100.00;101247.19;10356922;28;20033;-71
2023/11/21 04:10:12;;;;;;;9.00;4.95;;;;;;;10.25;100.00;101252.25;10374227;28;20056;-72
2023/11/21 04:15:14;;;;;;;11.20;5.47;;;;;;;10.28;100.00;101258.34;10357814;28;20044;-72
2023/11/21 04:20:14;;;;;;;9.20;5.22;;;;;;;10.29;100.00;101268.13;10372492;28;20066;-73
2023/11/21 04:25:15;;;;;;;7.05;5.60;;;;;;;10.30;100.00;101256.28;10375145;28;20061;-73
2023/11/21 04:30:15;;;;;;;7.68;6.72;;;;;;;10.33;100.00;101272.16;10376123;28;20481;-73
2023/11/21 04:35:16;;;;;;;9.13;5.72;;;;;;;10.31;100.00;101269.63;10372194;28;20057;-72
2023/11/21 04:40:17;;;;;;;6.80;5.65;;;;;;;10.35;100.00;101276.34;10370554;28;20022;-73
2023/11/21 04:45:17;;;;;;;8.13;7.15;;;;;;;10.40;100.00;101290.19;10371452;28;20073;-73
2023/11/21 04:50:17;;;;;;;9.27;6.03;;;;;;;10.40;100.00;101303.72;10370425;28;20092;-74
2023/11/21 04:55:19;;;;;;;10.38;6.63;;;;;;;10.41;100.00;101307.25;10371351;28;20045;-74
2023/11/21 05:00:21;;;;;;;1.02;1.02;;;;;;;10.31;100.00;101302.13;10353436;28;20046;-73
2023/11/21 05:05:22;;;;;;;0.30;0.30;;;;;;;10.09;100.00;101309.25;10372043;28;20058;-73
2023/11/21 05:10:22;;;;;;;0.40;0.40;;;;;;;9.85;100.00;101323.84;10354343;28;20029;-73
2023/11/21 05:15:27;;;;;;;0.60;0.60;;;;;;;9.62;100.00;101328.44;10372518;28;20366;-73
2023/11/21 05:20:29;;;;;;;0.40;0.40;;;;;;;9.44;100.00;101347.63;10370992;28;20102;-73
2023/11/21 05:25:29;;;;;;;0.50;0.50;;;;;;;9.36;100.00;101345.84;10352707;28;20529;-73
2023/11/21 05:30:30;;;;;;;2.17;1.30;;;;;;;9.42;100.00;101349.69;10352733;28;20030;-72
2023/11/21 05:35:30;;;;;;;0.30;0.30;;;;;;;9.44;100.00;101361.16;10352815;28;20033;-73
2023/11/21 05:40:31;;;;;;;0.38;0.38;;;;;;;9.51;100.00;101359.44;10369146;28;20030;-73
2023/11/21 05:45:33;;;;;;;0.40;0.40;;;;;;;9.67;100.00;101364.72;10369237;28;20121;-74
2023/11/21 05:50:35;;;;;;;0.60;0.60;;;;;;;9.80;100.00;101379.53;10369719;28;20042;-73
2023/11/21 05:55:35;;;;;;;2.05;1.95;;;;;;;9.92;100.00;101383.47;10368337;28;20136;-73
2023/11/21 06:00:37;;;;;;;0.40;0.40;;;;;;;10.05;100.00;101393.66;10368199;28;20560;-73
2023/11/21 06:05:37;;;;;;;0.40;0.40;;;;;;;10.11;100.00;101401.06;10369203;28;20428;-73
2023/11/21 06:10:40;;;;;;;1.00;1.00;;;;;;;10.10;100.00;101412.91;10369267;28;20406;-73
2023/11/21 06:15:40;;;;;;;0.45;0.45;;;;;;;10.06;100.00;101408.91;10369566;28;20370;-72
2023/11/21 06:20:41;;;;;;;0.40;0.40;;;;;;;9.93;100.00;101415.75;10340079;28;20133;-73
2023/11/21 06:25:41;;;;;;;1.00;1.00;;;;;;;9.78;100.00;101417.56;10377275;28;20026;-72
2023/11/21 06:30:44;;;;;;;0.30;0.30;;;;;;;9.61;100.00;101435.75;10375880;28;20030;-73
2023/11/21 06:35:45;;;;;;;0.60;0.60;;;;;;;9.49;100.00;101431.75;10378270;28;20082;-72
2023/11/21 06:40:46;;;;;;;0.50;0.50;;;;;;;9.41;100.00;101445.31;10375972;28;20181;-72
2023/11/21 06:45:46;;;;;;;0.40;0.40;;;;;;;9.31;100.00;101446.38;10376270;28;20124;-73
2023/11/21 06:50:46;;;;;;;0.50;0.50;;;;;;;9.24;100.00;101456.19;10374716;28;20100;-73
2023/11/21 06:55:47;;;;;;;0.30;0.30;;;;;;;9.18;100.00;101465.00;10374373;28;20122;-72
2023/11/21 07:00:50;;;;;;;0.40;0.40;;;;;;;9.19;100.00;101473.94;10375230;28;20145;-73
2023/11/21 07:05:50;;;;;;;0.35;0.35;;;;;;;9.25;100.00;101484.06;10359253;28;20049;-73
2023/11/21 07:10:51;;;;;;;0.40;0.40;;;;;;;9.28;100.00;101489.13;10375706;28;20030;-73
2023/11/21 07:15:52;;;;;;;0.63;0.63;;;;;;;9.46;100.00;101497.84;10356967;28;20169;-73
2023/11/21 07:20:53;;;;;;;0.70;0.70;;;;;;;9.66;100.00;101509.06;10374929;28;20409;-72
2023/11/21 07:25:53;;;;;;;0.57;0.57;;;;;;;9.83;100.00;101512.53;10340370;28;20045;-72
2023/11/21 07:30:54;;;;;;;0.90;0.90;;;;;;;9.90;100.00;101518.91;10358444;28;20038;-73
2023/11/21 07:35:54;;;;;;;0.40;0.40;;;;;;;10.01;100.00;101539.31;10356601;28;20524;-72
2023/11/21 07:40:55;;;;;;;0.40;0.40;;;;;;;10.11;100.00;101542.63;10372905;28;20038;-72
2023/11/21 07:45:55;;;;;;;0.70;0.70;;;;;;;10.21;100.00;101534.25;10355834;28;20045;-72
2023/11/21 07:50:56;;;;;;;0.40;0.40;;;;;;;10.32;100.00;101549.31;10372898;28;20121;-72
2023/11/21 07:55:57;;;;;;;0.50;0.50;;;;;;;10.42;100.00;101558.88;10372727;28;20030;-73
2023/11/21 08:00:57;;;;;;;0.50;0.50;;;;;;;10.54;100.00;101566.56;10372213;28;20132;-73
2023/11/21 08:05:58;;;;;;;0.50;0.50;;;;;;;10.50;100.00;101576.06;10372563;28;20113;-73
2023/11/21 08:11:01;;;;;;;2.47;2.38;;;;;;;10.49;100.00;101586.06;10356134;28;20075;-72
2023/11/21 08:16:03;;;;;;;0.40;0.40;;;;;;;10.59;100.00;101586.69;10371922;28;20053;-73
2023/11/21 08:21:05;;;;;;;0.50;0.50;;;;;;;10.68;100.00;101600.97;10372036;28;20366;-72
2023/11/21 08:26:05;;;;;;;0.98;0.98;;;;;;;10.82;100.00;101592.09;10339543;28;20117;-73
2023/11/21 08:31:06;;;;;;;0.40;0.40;;;;;;;11.29;100.00;101599.06;10371202;28;20034;-72
2023/11/21 08:36:12;;;;;;;0.50;0.50;;;;;;;12.37;100.00;101592.19;10354719;28;20068;-72
2023/11/21 08:41:14;;;;;;;0.40;0.40;;;;;;;12.34;100.00;101598.00;10356034;28;20030;-72
2023/11/21 08:46:15;;;;;;;0.60;0.60;;;;;;;11.70;100.00;101595.91;10371470;28;20380;-73
2023/11/21 08:51:15;;;;;;;0.45;0.45;;;;;;;11.46;100.00;101612.50;10371823;28;20049;-72
2023/11/21 08:56:16;;;;;;;1.08;1.08;;;;;;;11.43;100.00;101623.72;10373122;28;20121;-72
2023/11/21 09:01:17;;;;;;;0.60;0.60;;;;;;;11.26;100.00;101621.13;10355599;28;20049;-72
2023/11/21 09:06:17;;;;;;;0.45;0.45;;;;;;;11.21;100.00;101634.41;10354712;28;20492;-72
2023/11/21 09:11:18;;;;;;;0.75;0.75;;;;;;;11.23;100.00;101639.66;10354590;28;20122;-73
2023/11/21 09:16:19;;;;;;;0.40;0.40;;;;;;;11.16;100.00;101648.50;10372234;28;20034;-72
2023/11/21 09:21:19;;;;;;;0.50;0.50;;;;;;;11.12;100.00;101657.19;10353367;28;20029;-72
2023/11/21 09:26:20;;;;;;;0.40;0.40;;;;;;;11.15;100.00;101664.97;10373121;28;20042;-72
2023/11/21 09:31:22;;;;;;;1.73;1.13;;;;;;;11.29;100.00;101674.16;10370099;28;20433;-72
2023/11/21 09:36:27;;;;;;;0.30;0.30;;;;;;;11.26;100.00;101680.78;10369927;28;20046;-72
2023/11/21 09:41:34;;;;;;;0.55;0.55;;;;;;;11.24;100.00;101703.72;10385082;28;20030;-72
2023/11/21 09:46:39;;;;;;;0.55;0.55;;;;;;;11.17;100.00;101709.84;10369563;28;20037;-72
2023/11/21 09:51:42;;;;;;;1.02;1.02;;;;;;;11.19;100.00;101728.63;10353891;28;20026;-71
2023/11/21 09:56:42;;;;;;;0.32;0.32;;;;;;;11.20;100.00;101735.75;10372721;28;20493;-72
2023/11/21 10:01:43;;;;;;;0.40;0.40;;;;;;;11.28;100.00;101743.81;10362615;28;20081;-72
2023/11/21 10:06:45;;;;;;;0.68;0.68;;;;;;;11.34;100.00;101753.09;10346319;28;20038;-72
2023/11/21 10:11:46;;;;;;;0.93;0.93;;;;;;;11.29;100.00;101756.34;10377116;28;20038;-72
2023/11/21 10:16:47;;;;;;;1.20;1.20;;;;;;;11.20;100.00;101768.31;10377672;28;20033;-72
2023/11/21 10:21:47;;;;;;;0.57;0.57;;;;;;;11.06;100.00;101783.44;10344652;28;20037;-71
2023/11/21 10:26:48;;;;;;;3.70;1.05;;;;;;;10.95;100.00;101786.59;10376906;28;20034;-72
2023/11/21 10:31:50;;;;;;;0.77;0.52;;;;;;;10.83;100.00;101798.84;10378198;28;20036;-72
2023/11/21 10:36:50;;;;;;;0.30;0.30;;;;;;;10.92;100.00;101806.75;10376441;28;20434;-71
2023/11/21 10:41:51;;;;;;;0.50;0.50;;;;;;;11.01;100.00;101812.09;10377361;28;20117;-71
2023/11/21 10:46:54;;;;;;;0.60;0.60;;;;;;;11.02;100.00;101822.78;10376531;28;20370;-71
2023/11/21 10:51:54;;;;;;;0.77;0.77;;;;;;;11.05;100.00;101829.72;10360037;28;20401;-71
2023/11/21 10:57:01;;;;;;;0.40;0.40;;;;;;;11.04;100.00;101822.59;10376144;28;20049;-72
2023/11/21 11:02:13;;;;;;;0.40;0.40;;;;;;;11.04;100.00;101820.75;10359960;28;20033;-71
2023/11/21 11:07:16;;;;;;;0.63;0.63;;;;;;;11.07;100.00;101833.94;10358886;28;20065;-71
2023/11/21 11:12:17;;;;;;;0.40;0.40;;;;;;;11.20;100.00;101824.34;10358892;28;20030;-71
2023/11/21 11:17:20;;;;;;;0.88;0.88;;;;;;;11.26;100.00;101837.22;10390825;28;20030;-71
2023/11/21 11:22:35;;;;;;;0.40;0.40;;;;;;;11.53;100.00;101833.13;10374612;28;20026;-71
2023/11/21 11:28:00;;;;;;;0.60;0.60;;;;;;;11.46;100.00;101830.31;10374319;28;20457;-71
2023/11/21 11:33:14;;;;;;;0.50;0.50;;;;;;;11.47;100.00;101833.84;10373826;28;20066;-71
2023/11/21 11:38:14;;;;;;;0.52;0.52;;;;;;;11.50;100.00;101828.06;10359005;28;20030;-71
2023/11/21 11:43:24;;;;;;;1.50;1.50;;;;;;;11.65;100.00;101842.53;10357136;28;20022;-71
2023/11/21 11:48:25;;;;;;;10.60;8.98;;;;;;;11.94;100.00;101840.97;10373968;28;20025;-71
2023/11/21 11:53:25;;;;;;;9.20;8.30;;;;;;;12.07;100.00;101854.75;10357332;28;20404;-71
2023/11/21 11:58:25;;;;;;;9.18;8.13;;;;;;;12.34;100.00;101859.56;10374605;28;20529;-71
2023/11/21 12:03:26;;;;;;;8.98;7.35;;;;;;;12.22;100.00;101857.50;10357295;28;20125;-71
2023/11/21 12:08:31;;;;;;;10.50;5.40;;;;;;;12.09;100.00;101874.41;10374397;28;20409;-71
2023/11/21 12:13:31;;;;;;;6.05;5.22;;;;;;;12.10;100.00;101879.66;10372457;28;20040;-71
2023/11/21 12:18:32;;;;;;;7.20;6.63;;;;;;;12.12;100.00;101870.50;10371691;28;20484;-71
2023/11/21 12:23:34;;;;;;;6.30;5.75;;;;;;;11.97;100.00;101878.63;10355628;28;20109;-71
2023/11/21 12:28:35;;;;;;;6.70;6.10;;;;;;;12.11;100.00;101883.22;10371437;28;20038;-71
2023/11/21 12:33:35;;;;;;;7.82;5.22;;;;;;;12.00;100.00;101889.13;10373361;28;20046;-72
2023/11/21 12:38:35;;;;;;;10.48;5.30;;;;;;;12.06;100.00;101893.78;10372092;28;20136;-71
2023/11/21 12:43:36;;;;;;;7.40;5.13;;;;;;;11.78;100.00;101894.34;10356337;28;20045;-72
2023/11/21 12:48:43;;;;;;;6.10;5.57;;;;;;;11.52;100.00;101904.66;10355181;28;20153;-71
2023/11/21 12:53:44;;;;;;;8.55;5.93;;;;;;;11.46;100.00;101918.97;10371012;28;20042;-71
2023/11/21 12:58:46;;;;;;;6.13;5.30;;;;;;;11.47;100.00;101918.78;10371152;28;20124;-71
2023/11/21 13:03:50;;;;;;;5.00;4.43;;;;;;;11.50;100.00;101925.72;10354951;28;20026;-71
2023/11/21 13:08:52;;;;;;;5.68;5.18;;;;;;;11.40;100.00;101937.63;10369867;28;20108;-71
2023/11/21 13:13:53;;;;;;;4.47;4.07;;;;;;;11.45;100.00;101928.09;10370366;28;20488;-72
2023/11/21 13:18:53;;;;;;;5.95;5.05;;;;;;;11.50;100.00;101944.72;10369507;28;20045;-71
2023/11/21 13:23:54;;;;;;;5.00;4.20;;;;;;;11.61;100.00;101938.88;10369800;28;20517;-71
2023/11/21 13:28:54;;;;;;;6.75;3.88;;;;;;;11.54;100.00;101937.91;10354457;28;20042;-71
2023/11/21 13:33:55;;;;;;;10.55;4.88;;;;;;;11.49;100.00;101945.75;10353063;28;20129;-71
2023/11/21 13:38:58;;;;;;;7.57;4.68;;;;;;;11.52;100.00;101956.22;10368780;28;20045;-72
2023/11/21 13:44:14;;;;;;;8.77;6.03;;;;;;;11.43;100.00;101944.56;10372036;28;20133;-71
2023/11/21 13:49:16;;;;;;;7.13;5.43;;;;;;;11.37;100.00;101959.69;10370009;28;20038;-71
2023/11/21 13:54:16;;;;;;;6.35;4.30;;;;;;;11.37;100.00;101970.53;10370040;28;20064;-71
2023/11/21 13:59:25;;;;;;;7.15;6.40;;;;;;;11.22;100.00;101968.75;10353600;28;20085;-71
2023/11/21 14:04:49;;;;;;;5.22;4.75;;;;;;;11.32;100.00;101982.91;10355931;28;20034;-72
2023/11/21 14:09:50;;;;;;;9.43;5.60;;;;;;;11.23;100.00;101992.09;10356357;28;20059;-71
2023/11/21 14:14:50;;;;;;;5.00;4.18;;;;;;;11.11;100.00;101999.78;10371684;28;20462;-71
2023/11/21 14:19:51;;;;;;;6.38;4.90;;;;;;;11.10;100.00;102007.09;10370028;28;20092;-71
2023/11/21 14:24:52;;;;;;;5.30;4.55;;;;;;;11.15;100.00;102014.69;10353689;28;20070;-71
2023/11/21 14:29:52;;;;;;;7.53;5.40;;;;;;;11.10;100.00;102019.75;10369976;28;20401;-71
2023/11/21 14:34:53;;;;;;;6.97;6.25;;;;;;;11.01;100.00;102029.81;10353341;28;20030;-71
2023/11/21 14:39:54;;;;;;;10.25;7.93;;;;;;;10.83;100.00;102021.03;10370688;28;20038;-71
2023/11/21 14:45:00;;;;;;;9.73;7.72;;;;;;;10.56;100.00;102033.94;10374650;28;20030;-71
2023/11/21 14:50:20;;;;;;;10.23;8.02;;;;;;;10.44;100.00;102054.22;10376394;28;20045;-71
2023/11/21 14:55:26;;;;;;;11.57;9.35;;;;;;;10.22;100.00;102067.38;10366202;28;20030;-71
2023/11/21 15:00:44;;;;;;;10.95;9.43;;;;;;;10.05;100.00;102081.00;10377884;28;20065;-71
2023/11/21 15:05:45;;;;;;;10.65;9.55;;;;;;;9.97;100.00;102106.22;10362461;28;20116;-71
2023/11/21 15:10:47;;;;;;;16.08;9.88;;;;;;;9.98;100.00;102108.72;10358490;28;20054;-71
2023/11/21 15:15:48;;;;;;;11.18;9.57;;;;;;;10.01;100.00;102115.69;10391237;28;20045;-72
2023/11/21 15:20:48;;;;;;;11.68;9.32;;;;;;;10.04;100.00;102134.28;10373533;28;20121;-71
2023/11/21 15:25:49;;;;;;;10.63;9.50;;;;;;;9.97;100.00;102139.53;10357368;28;20037;-71
2023/11/21 15:30:51;;;;;;;10.18;9.10;;;;;;;9.80;100.00;102159.41;10373319;28;20473;-71
2023/11/21 15:35:51;;;;;;;9.30;7.53;;;;;;;9.73;100.00;102158.34;10375528;28;20068;-71
2023/11/21 15:40:52;;;;;;;9.07;7.38;;;;;;;9.65;100.00;102171.84;10376025;28;20034;-71
2023/11/21 15:45:52;;;;;;;12.88;8.25;;;;;;;9.55;100.00;102180.91;10374148;28;20029;-71
2023/11/21 15:50:56;;;;;;;9.25;7.28;;;;;;;9.60;100.00;102195.78;10375050;28;20030;-71
2023/11/21 15:55:58;;;;;;;9.82;8.88;;;;;;;9.55;100.00;102201.69;10373913;28;20038;-71
2023/11/21 16:00:58;;;;;;;9.38;8.40;;;;;;;9.55;100.00;102226.88;10355978;28;20050;-71
2023/11/21 16:05:59;;;;;;;11.85;8.95;;;;;;;9.44;100.00;102228.97;10374124;28;20533;-71
2023/11/21 16:10:59;;;;;;;10.00;7.93;;;;;;;9.39;100.00;102236.72;10373839;28;20029;-71
2023/11/21 16:16:01;;;;;;;9.00;7.82;;;;;;;9.35;100.00;102244.31;10355291;28;20046;-72
2023/11/21 16:21:01;;;;;;;16.27;9.90;;;;;;;9.31;100.00;102251.00;10373423;28;20037;-72
2023/11/21 16:26:02;;;;;;;9.13;6.78;;;;;;;9.21;100.00;102255.66;10356379;28;20470;-71
2023/11/21 16:31:02;;;;;;;12.07;9.07;;;;;;;9.16;100.00;102276.91;10372018;28;20398;-71
2023/11/21 16:36:03;;;;;;;9.75;8.07;;;;;;;9.05;100.00;102277.97;10372428;28;20041;-71
2023/11/21 16:41:04;;;;;;;15.77;10.13;;;;;;;9.03;100.00;102297.06;10371418;28;20415;-71
2023/11/21 16:46:04;;;;;;;11.05;8.50;;;;;;;9.02;100.00;102308.84;10373128;28;20201;-71
2023/11/21 16:51:05;;;;;;;12.20;10.15;;;;;;;8.93;100.00;102317.00;10371056;28;20469;-71
2023/11/21 16:56:07;;;;;;;10.60;9.50;;;;;;;8.99;100.00;102340.72;10338238;28;20056;-71
2023/11/21 17:01:07;;;;;;;11.98;10.43;;;;;;;8.89;100.00;102345.34;10354449;28;20144;-71
2023/11/21 17:06:08;;;;;;;13.80;9.30;;;;;;;8.88;100.00;102366.13;10370112;28;20042;-71
2023/11/21 17:11:13;;;;;;;13.10;8.90;;;;;;;8.85;100.00;102374.50;10373214;28;20034;-71
2023/11/21 17:16:14;;;;;;;13.07;10.93;;;;;;;8.80;100.00;102388.44;10386683;28;20042;-71
2023/11/21 17:21:16;;;;;;;14.82;10.00;;;;;;;8.72;100.00;102387.53;10370560;28;20381;-71
2023/11/21 17:26:16;;;;;;;13.07;10.02;;;;;;;8.69;100.00;102414.81;10388287;28;20034;-71
2023/11/21 17:31:17;;;;;;;11.68;10.48;;;;;;;8.58;100.00;102422.13;10370573;28;20033;-71
2023/11/21 17:36:18;;;;;;;13.23;9.35;;;;;;;8.45;100.00;102426.94;10354114;28;20161;-71
2023/11/21 17:41:21;;;;;;;13.13;10.25;;;;;;;8.25;100.00;102436.06;10369572;28;20030;-71
2023/11/21 17:46:22;;;;;;;11.90;10.05;;;;;;;8.01;100.00;102425.72;10369280;28;20116;-71
2023/11/21 17:51:23;;;;;;;10.60;9.32;;;;;;;7.76;100.00;102433.41;10353269;28;20144;-71
2023/11/21 17:56:23;;;;;;;10.65;9.43;;;;;;;7.62;100.00;102450.84;10370578;28;20041;-71
2023/11/21 18:01:30;;;;;;;11.90;8.98;;;;;;;7.53;100.00;102458.91;10370178;28;20468;-71
2023/11/21 18:06:30;;;;;;;;;;;;;;;7.41;100.00;102468.97;10370471;28;20434;-71
2023/11/21 18:11:31;;;;;;;10.70;9.10;;;;;;;7.28;100.00;102476.47;10387396;28;19914;-71
2023/11/21 18:16:31;;;;;;;10.10;8.88;;;;;;;7.20;100.00;102485.22;10354371;28;20069;-71
2023/11/21 18:21:32;;;;;;;12.98;10.05;;;;;;;7.11;100.00;102486.03;10392817;28;20107;-71
2023/11/21 18:26:33;;;;;;;14.68;10.00;;;;;;;7.01;100.00;102499.47;10376894;28;20056;-71
2023/11/21 18:31:34;;;;;;;10.07;8.93;;;;;;;6.88;100.00;102515.00;10360202;28;20034;-71
2023/11/21 18:36:34;;;;;;;10.60;9.38;;;;;;;6.82;100.00;102527.13;10376310;28;20397;-71
2023/11/21 18:41:35;;;;;;;13.25;10.23;;;;;;;6.69;100.00;102521.97;10376051;28;20124;-71
2023/11/21 18:46:39;;;;;;;14.90;9.80;;;;;;;6.64;100.00;102537.69;10359774;28;20145;-71
2023/11/21 18:51:40;;;;;;;13.52;9.38;;;;;;;6.57;100.00;102546.38;10377296;28;20033;-71
2023/11/21 18:56:42;;;;;;;17.02;11.10;;;;;;;6.42;100.00;102554.78;10359609;28;20065;-71
2023/11/21 19:01:43;;;;;;;19.92;10.18;;;;;;;6.39;100.00;102564.97;10378402;28;20080;-71
2023/11/21 19:06:46;;;;;;;17.00;13.63;;;;;;;6.34;100.00;102575.25;10376431;28;20030;-71
2023/11/21 19:11:47;;;;;;;17.67;14.63;;;;;;;6.29;100.00;102581.03;10375192;28;20038;-71
2023/11/21 19:16:48;;;;;;;19.92;13.55;;;;;;;6.20;100.00;102596.09;10375820;28;20053;-71
2023/11/21 19:21:49;;;;;;;18.88;13.80;;;;;;;6.12;100.00;102601.25;10375684;28;20030;-70
2023/11/21 19:26:51;;;;;;;23.85;17.08;;;;;;;6.11;100.00;102606.75;10374224;28;20450;-71
2023/11/21 19:31:51;;;;;;;17.13;12.93;;;;;;;6.07;100.00;102608.84;10374216;28;20108;-71
2023/11/21 19:36:52;;;;;;;14.00;12.30;;;;;;;6.05;100.00;102602.72;10375615;28;20061;-71
2023/11/21 19:41:52;;;;;;;15.63;13.40;;;;;;;6.04;100.00;102601.88;10390444;28;20057;-71
2023/11/21 19:46:53;;;;;;;21.92;12.80;;;;;;;6.01;100.00;102609.34;10389489;28;20500;-71
2023/11/21 19:51:53;;;;;;;19.45;13.65;;;;;;;5.99;100.00;102604.09;10374666;28;20441;-71
2023/11/21 19:56:54;;;;;;;17.33;13.13;;;;;;;5.88;100.00;102601.41;10376023;28;20084;-71
2023/11/21 20:01:55;;;;;;;21.55;14.10;;;;;;;5.82;100.00;102624.25;10372356;28;20057;-71
2023/11/21 20:06:56;;;;;;;18.33;13.35;;;;;;;5.78;100.00;102632.72;10373844;28;20125;-71
2023/11/21 20:11:58;;;;;;;23.17;16.20;;;;;;;5.79;100.00;102639.78;10356349;28;20053;-72
2023/11/21 20:16:59;;;;;;;23.70;14.90;;;;;;;5.71;100.00;102648.47;10373650;28;20038;-71
2023/11/21 20:21:59;;;;;;;18.88;13.60;;;;;;;5.71;100.00;102659.22;10372708;28;20092;-71
2023/11/21 20:27:02;;;;;;;18.50;15.27;;;;;;;5.64;100.00;102666.03;10372418;28;20129;-71
2023/11/21 20:32:05;;;;;;;23.00;13.80;;;;;;;5.60;100.00;102667.28;10373422;28;20033;-71
2023/11/21 20:37:06;;;;;;;16.67;13.07;;;;;;;5.56;100.00;102660.44;10372233;28;20081;-72
2023/11/21 20:42:06;;;;;;;17.55;13.45;;;;;;;5.46;100.00;102680.94;10371540;28;20125;-71
2023/11/21 20:47:07;;;;;;;19.33;15.60;;;;;;;5.51;100.00;102702.94;10354518;28;20061;-71
2023/11/21 20:52:08;;;;;;;24.77;17.40;;;;;;;5.51;100.00;102700.25;10355053;28;20153;-71
2023/11/21 20:57:09;;;;;;;21.88;15.80;;;;;;;5.48;100.00;102701.31;10372313;28;20049;-71
2023/11/21 21:02:09;;;;;;;22.83;16.23;;;;;;;5.44;100.00;102699.88;10371148;28;20091;-71
2023/11/21 21:07:10;;;;;;;24.67;16.30;;;;;;;5.45;100.00;102712.31;10372247;28;20038;-71
2023/11/21 21:12:11;;;;;;;18.45;15.95;;;;;;;5.43;100.00;102722.34;10371025;28;20132;-72
2023/11/21 21:17:12;;;;;;;21.02;14.98;;;;;;;5.40;100.00;102727.97;10354629;28;20044;-71
2023/11/21 21:22:13;;;;;;;18.83;14.63;;;;;;;5.49;100.00;102721.03;10373254;28;20033;-71
2023/11/21 21:27:13;;;;;;;16.50;12.98;;;;;;;5.55;100.00;102728.56;10355080;28;20038;-71
2023/11/21 21:32:14;;;;;;;26.02;15.93;;;;;;;5.54;100.00;102746.53;10369282;28;20490;-71
2023/11/21 21:37:14;;;;;;;17.98;13.05;;;;;;;5.49;100.00;102750.56;10370600;28;20041;-71
2023/11/21 21:42:15;;;;;;;19.08;14.48;;;;;;;5.40;100.00;102757.50;10353743;28;20041;-71
2023/11/21 21:47:15;;;;;;;23.83;15.27;;;;;;;5.29;100.00;102771.75;10370156;28;20045;-71
2023/11/21 21:52:16;;;;;;;16.30;13.00;;;;;;;5.16;100.00;102762.91;10374094;28;20042;-71
2023/11/21 21:57:17;;;;;;;21.48;14.77;;;;;;;5.11;100.00;102776.69;10394118;28;20124;-71
2023/11/21 22:02:18;;;;;;;17.92;13.27;;;;;;;5.17;100.00;102780.75;10378944;28;20442;-71
2023/11/21 22:07:18;;;;;;;19.13;14.40;;;;;;;5.41;100.00;102795.97;10379279;28;20041;-71
2023/11/21 22:12:19;;;;;;;31.65;15.57;;;;;;;5.63;100.00;102779.91;10377829;28;20116;-71
2023/11/21 22:17:20;;;;;;;25.90;14.85;;;;;;;5.82;100.00;102795.47;10376550;28;20072;-71
2023/11/21 22:22:20;;;;;;;20.00;14.27;;;;;;;5.91;100.00;102789.38;10377068;28;20120;-71
2023/11/21 22:27:21;;;;;;;22.88;14.50;;;;;;;6.05;100.00;102802.59;10377072;28;20041;-71
2023/11/21 22:32:21;;;;;;;18.48;13.82;;;;;;;6.06;100.00;102795.38;10394349;28;20076;-72
2023/11/21 22:37:22;;;;;;;26.98;13.77;;;;;;;6.08;100.00;102796.13;10378634;28;20029;-72
2023/11/21 22:42:23;;;;;;;16.92;14.43;;;;;;;6.20;100.00;102799.69;10377518;28;20432;-71
2023/11/21 22:47:23;;;;;;;20.55;12.52;;;;;;;6.28;100.00;102803.44;10360760;28;20129;-71
2023/11/21 22:52:24;;;;;;;14.77;12.48;;;;;;;6.36;100.00;102812.78;10375325;28;20488;-71